sensor_id;sensor_type;location;lat;lon;timestamp;P1;durP1;ratioP1;P2;durP2;ratioP2
2462;SDS011;1243;54.298;10.172;2023-12-28T00:00:42;10.17;;;6.03;;
2462;SDS011;1243;54.298;10.172;2023-12-28T00:03:08;8.53;;;6.17;;
2462;SDS011;1243;54.298;10.172;2023-12-28T00:05:33;7.17;;;6.47;;
2462;SDS011;1243;54.298;10.172;2023-12-28T00:07:59;7.13;;;5.67;;
2462;SDS011;1243;54.298;10.172;2023-12-28T00:10:25;7.30;;;6.20;;
2462;SDS011;1243;54.298;10.172;2023-12-28T00:12:53;8.30;;;5.40;;
2462;SDS011;1243;54.298;10.172;2023-12-28T00:15:19;6.90;;;6.20;;
2462;SDS011;1243;54.298;10.172;2023-12-28T00:17:45;8.50;;;6.00;;
2462;SDS011;1243;54.298;10.172;2023-12-28T00:20:11;6.30;;;5.80;;
2462;SDS011;1243;54.298;10.172;2023-12-28T00:22:37;10.90;;;6.33;;
2462;SDS011;1243;54.298;10.172;2023-12-28T00:25:06;6.20;;;5.60;;
2462;SDS011;1243;54.298;10.172;2023-12-28T00:27:31;6.87;;;5.83;;
2462;SDS011;1243;54.298;10.172;2023-12-28T00:30:02;7.07;;;6.10;;
2462;SDS011;1243;54.298;10.172;2023-12-28T00:32:29;5.73;;;5.10;;
2462;SDS011;1243;54.298;10.172;2023-12-28T00:34:55;6.30;;;5.80;;
2462;SDS011;1243;54.298;10.172;2023-12-28T00:37:21;6.87;;;6.07;;
2462;SDS011;1243;54.298;10.172;2023-12-28T00:39:46;8.40;;;5.60;;
2462;SDS011;1243;54.298;10.172;2023-12-28T00:42:14;5.17;;;4.67;;
2462;SDS011;1243;54.298;10.172;2023-12-28T00:44:40;5.10;;;4.60;;
2462;SDS011;1243;54.298;10.172;2023-12-28T00:47:06;5.07;;;4.67;;
2462;SDS011;1243;54.298;10.172;2023-12-28T00:49:32;6.30;;;5.70;;
2462;SDS011;1243;54.298;10.172;2023-12-28T00:51:58;5.80;;;5.20;;
2462;SDS011;1243;54.298;10.172;2023-12-28T00:54:23;5.60;;;5.10;;
2462;SDS011;1243;54.298;10.172;2023-12-28T00:56:49;6.07;;;5.00;;
2462;SDS011;1243;54.298;10.172;2023-12-28T00:59:15;7.57;;;4.93;;
2462;SDS011;1243;54.298;10.172;2023-12-28T01:01:40;7.77;;;5.87;;
2462;SDS011;1243;54.298;10.172;2023-12-28T01:04:06;5.67;;;5.17;;
2462;SDS011;1243;54.298;10.172;2023-12-28T01:06:32;5.57;;;5.07;;
2462;SDS011;1243;54.298;10.172;2023-12-28T01:08:57;8.10;;;6.63;;
2462;SDS011;1243;54.298;10.172;2023-12-28T01:11:23;9.77;;;5.80;;
2462;SDS011;1243;54.298;10.172;2023-12-28T01:13:49;6.23;;;5.63;;
2462;SDS011;1243;54.298;10.172;2023-12-28T01:16:16;5.80;;;5.23;;
2462;SDS011;1243;54.298;10.172;2023-12-28T01:18:42;6.60;;;5.87;;
2462;SDS011;1243;54.298;10.172;2023-12-28T01:21:08;9.60;;;7.03;;
2462;SDS011;1243;54.298;10.172;2023-12-28T01:23:33;9.77;;;7.13;;
2462;SDS011;1243;54.298;10.172;2023-12-28T01:25:59;6.47;;;5.73;;
2462;SDS011;1243;54.298;10.172;2023-12-28T01:28:26;8.93;;;6.23;;
2462;SDS011;1243;54.298;10.172;2023-12-28T01:30:52;10.87;;;5.90;;
2462;SDS011;1243;54.298;10.172;2023-12-28T01:33:17;8.10;;;5.90;;
2462;SDS011;1243;54.298;10.172;2023-12-28T01:35:43;8.90;;;6.13;;
2462;SDS011;1243;54.298;10.172;2023-12-28T01:38:09;9.33;;;5.97;;
2462;SDS011;1243;54.298;10.172;2023-12-28T01:40:34;5.30;;;4.90;;
2462;SDS011;1243;54.298;10.172;2023-12-28T01:43:00;8.93;;;6.70;;
2462;SDS011;1243;54.298;10.172;2023-12-28T01:45:26;8.87;;;6.17;;
2462;SDS011;1243;54.298;10.172;2023-12-28T01:47:52;7.20;;;6.60;;
2462;SDS011;1243;54.298;10.172;2023-12-28T01:50:19;6.73;;;6.03;;
2462;SDS011;1243;54.298;10.172;2023-12-28T01:52:46;9.13;;;6.93;;
2462;SDS011;1243;54.298;10.172;2023-12-28T01:55:12;5.73;;;5.33;;
2462;SDS011;1243;54.298;10.172;2023-12-28T01:57:39;8.63;;;7.40;;
2462;SDS011;1243;54.298;10.172;2023-12-28T02:00:06;11.77;;;6.20;;
2462;SDS011;1243;54.298;10.172;2023-12-28T02:02:32;9.30;;;6.10;;
2462;SDS011;1243;54.298;10.172;2023-12-28T02:04:59;6.40;;;5.40;;
2462;SDS011;1243;54.298;10.172;2023-12-28T02:07:25;6.30;;;5.80;;
2462;SDS011;1243;54.298;10.172;2023-12-28T02:09:51;7.00;;;6.30;;
2462;SDS011;1243;54.298;10.172;2023-12-28T02:12:17;7.30;;;5.80;;
2462;SDS011;1243;54.298;10.172;2023-12-28T02:14:42;9.23;;;5.90;;
2462;SDS011;1243;54.298;10.172;2023-12-28T02:17:13;6.97;;;6.37;;
2462;SDS011;1243;54.298;10.172;2023-12-28T02:19:51;6.83;;;6.23;;
2462;SDS011;1243;54.298;10.172;2023-12-28T02:22:19;7.67;;;7.07;;
2462;SDS011;1243;54.298;10.172;2023-12-28T02:27:21;6.40;;;5.90;;
2462;SDS011;1243;54.298;10.172;2023-12-28T02:29:47;6.97;;;6.27;;
2462;SDS011;1243;54.298;10.172;2023-12-28T02:32:12;7.13;;;6.43;;
2462;SDS011;1243;54.298;10.172;2023-12-28T02:34:42;7.03;;;6.43;;
2462;SDS011;1243;54.298;10.172;2023-12-28T02:37:12;7.67;;;6.33;;
2462;SDS011;1243;54.298;10.172;2023-12-28T02:39:41;9.10;;;7.70;;
2462;SDS011;1243;54.298;10.172;2023-12-28T02:42:09;5.93;;;5.43;;
2462;SDS011;1243;54.298;10.172;2023-12-28T02:44:35;6.37;;;5.50;;
2462;SDS011;1243;54.298;10.172;2023-12-28T02:47:01;8.87;;;6.33;;
2462;SDS011;1243;54.298;10.172;2023-12-28T02:49:26;7.13;;;6.43;;
2462;SDS011;1243;54.298;10.172;2023-12-28T02:51:52;7.37;;;5.93;;
2462;SDS011;1243;54.298;10.172;2023-12-28T02:54:18;6.93;;;6.43;;
2462;SDS011;1243;54.298;10.172;2023-12-28T02:56:43;7.97;;;6.27;;
2462;SDS011;1243;54.298;10.172;2023-12-28T02:59:09;8.10;;;6.50;;
2462;SDS011;1243;54.298;10.172;2023-12-28T03:01:35;7.50;;;6.77;;
2462;SDS011;1243;54.298;10.172;2023-12-28T03:04:00;6.67;;;5.87;;
2462;SDS011;1243;54.298;10.172;2023-12-28T03:06:26;6.17;;;5.63;;
2462;SDS011;1243;54.298;10.172;2023-12-28T03:08:51;6.60;;;5.80;;
2462;SDS011;1243;54.298;10.172;2023-12-28T03:11:17;6.70;;;6.10;;
2462;SDS011;1243;54.298;10.172;2023-12-28T03:13:45;7.80;;;6.20;;
2462;SDS011;1243;54.298;10.172;2023-12-28T03:16:13;5.90;;;5.40;;
2462;SDS011;1243;54.298;10.172;2023-12-28T03:18:38;6.00;;;5.50;;
2462;SDS011;1243;54.298;10.172;2023-12-28T03:21:04;7.70;;;6.33;;
2462;SDS011;1243;54.298;10.172;2023-12-28T03:23:30;6.37;;;5.77;;
2462;SDS011;1243;54.298;10.172;2023-12-28T03:25:56;13.20;;;5.40;;
2462;SDS011;1243;54.298;10.172;2023-12-28T03:28:21;8.00;;;6.20;;
2462;SDS011;1243;54.298;10.172;2023-12-28T03:30:47;6.93;;;6.27;;
2462;SDS011;1243;54.298;10.172;2023-12-28T03:33:13;5.17;;;4.77;;
2462;SDS011;1243;54.298;10.172;2023-12-28T03:35:38;7.87;;;6.00;;
2462;SDS011;1243;54.298;10.172;2023-12-28T03:38:04;6.50;;;5.90;;
2462;SDS011;1243;54.298;10.172;2023-12-28T03:40:30;5.73;;;5.30;;
2462;SDS011;1243;54.298;10.172;2023-12-28T03:42:55;6.03;;;4.90;;
2462;SDS011;1243;54.298;10.172;2023-12-28T03:45:21;6.40;;;5.80;;
2462;SDS011;1243;54.298;10.172;2023-12-28T03:47:46;5.63;;;4.87;;
2462;SDS011;1243;54.298;10.172;2023-12-28T03:50:12;14.40;;;6.13;;
2462;SDS011;1243;54.298;10.172;2023-12-28T03:52:38;7.93;;;5.43;;
2462;SDS011;1243;54.298;10.172;2023-12-28T03:55:04;8.60;;;5.60;;
2462;SDS011;1243;54.298;10.172;2023-12-28T03:57:29;7.07;;;5.90;;
2462;SDS011;1243;54.298;10.172;2023-12-28T03:59:55;6.20;;;5.00;;
2462;SDS011;1243;54.298;10.172;2023-12-28T04:02:21;7.30;;;6.60;;
2462;SDS011;1243;54.298;10.172;2023-12-28T04:04:49;6.43;;;5.80;;
2462;SDS011;1243;54.298;10.172;2023-12-28T04:07:15;6.40;;;5.80;;
2462;SDS011;1243;54.298;10.172;2023-12-28T04:09:41;7.57;;;5.80;;
2462;SDS011;1243;54.298;10.172;2023-12-28T04:12:07;9.57;;;5.53;;
2462;SDS011;1243;54.298;10.172;2023-12-28T04:14:32;7.40;;;4.60;;
2462;SDS011;1243;54.298;10.172;2023-12-28T04:17:00;8.50;;;6.17;;
2462;SDS011;1243;54.298;10.172;2023-12-28T04:19:26;6.70;;;5.37;;
2462;SDS011;1243;54.298;10.172;2023-12-28T04:21:51;9.00;;;5.70;;
2462;SDS011;1243;54.298;10.172;2023-12-28T04:24:17;6.20;;;4.87;;
2462;SDS011;1243;54.298;10.172;2023-12-28T04:26:43;9.20;;;5.10;;
2462;SDS011;1243;54.298;10.172;2023-12-28T04:29:08;8.17;;;5.93;;
2462;SDS011;1243;54.298;10.172;2023-12-28T04:31:39;8.27;;;5.40;;
2462;SDS011;1243;54.298;10.172;2023-12-28T04:34:06;8.43;;;5.80;;
2462;SDS011;1243;54.298;10.172;2023-12-28T04:36:38;6.30;;;5.50;;
2462;SDS011;1243;54.298;10.172;2023-12-28T04:39:05;6.50;;;4.97;;
2462;SDS011;1243;54.298;10.172;2023-12-28T04:41:31;5.70;;;5.30;;
2462;SDS011;1243;54.298;10.172;2023-12-28T04:43:57;6.33;;;5.83;;
2462;SDS011;1243;54.298;10.172;2023-12-28T04:46:22;8.50;;;5.50;;
2462;SDS011;1243;54.298;10.172;2023-12-28T04:48:48;7.07;;;5.30;;
2462;SDS011;1243;54.298;10.172;2023-12-28T04:51:14;5.90;;;5.37;;
2462;SDS011;1243;54.298;10.172;2023-12-28T04:53:39;9.07;;;6.07;;
2462;SDS011;1243;54.298;10.172;2023-12-28T04:56:05;13.67;;;7.27;;
2462;SDS011;1243;54.298;10.172;2023-12-28T04:58:31;5.17;;;4.67;;
2462;SDS011;1243;54.298;10.172;2023-12-28T05:00:57;6.93;;;5.63;;
2462;SDS011;1243;54.298;10.172;2023-12-28T05:03:22;9.37;;;5.67;;
2462;SDS011;1243;54.298;10.172;2023-12-28T05:05:48;5.53;;;5.13;;
2462;SDS011;1243;54.298;10.172;2023-12-28T05:08:14;5.73;;;5.13;;
2462;SDS011;1243;54.298;10.172;2023-12-28T05:10:39;6.07;;;5.47;;
2462;SDS011;1243;54.298;10.172;2023-12-28T05:13:05;9.83;;;6.27;;
2462;SDS011;1243;54.298;10.172;2023-12-28T05:15:31;6.87;;;5.30;;
2462;SDS011;1243;54.298;10.172;2023-12-28T05:17:56;7.30;;;5.30;;
2462;SDS011;1243;54.298;10.172;2023-12-28T05:20:22;6.83;;;5.40;;
2462;SDS011;1243;54.298;10.172;2023-12-28T05:22:47;5.57;;;5.07;;
2462;SDS011;1243;54.298;10.172;2023-12-28T05:25:13;5.03;;;4.67;;
2462;SDS011;1243;54.298;10.172;2023-12-28T05:27:39;7.70;;;6.73;;
2462;SDS011;1243;54.298;10.172;2023-12-28T05:30:07;12.57;;;6.07;;
2462;SDS011;1243;54.298;10.172;2023-12-28T05:32:34;6.30;;;5.10;;
2462;SDS011;1243;54.298;10.172;2023-12-28T05:35:00;5.00;;;4.33;;
2462;SDS011;1243;54.298;10.172;2023-12-28T05:37:26;6.97;;;5.20;;
2462;SDS011;1243;54.298;10.172;2023-12-28T05:39:52;5.83;;;5.43;;
2462;SDS011;1243;54.298;10.172;2023-12-28T05:42:17;8.97;;;5.50;;
2462;SDS011;1243;54.298;10.172;2023-12-28T05:44:43;8.33;;;5.43;;
2462;SDS011;1243;54.298;10.172;2023-12-28T05:47:09;4.67;;;4.37;;
2462;SDS011;1243;54.298;10.172;2023-12-28T05:49:34;7.07;;;5.80;;
2462;SDS011;1243;54.298;10.172;2023-12-28T05:52:02;5.63;;;5.23;;
2462;SDS011;1243;54.298;10.172;2023-12-28T05:54:28;5.93;;;4.97;;
2462;SDS011;1243;54.298;10.172;2023-12-28T05:56:54;6.00;;;5.37;;
2462;SDS011;1243;54.298;10.172;2023-12-28T05:59:19;8.80;;;5.60;;
2462;SDS011;1243;54.298;10.172;2023-12-28T06:01:46;6.00;;;5.07;;
2462;SDS011;1243;54.298;10.172;2023-12-28T06:04:12;7.40;;;5.33;;
2462;SDS011;1243;54.298;10.172;2023-12-28T06:06:38;7.33;;;5.23;;
2462;SDS011;1243;54.298;10.172;2023-12-28T06:09:04;5.60;;;5.13;;
2462;SDS011;1243;54.298;10.172;2023-12-28T06:11:29;5.13;;;4.70;;
2462;SDS011;1243;54.298;10.172;2023-12-28T06:13:55;4.77;;;4.43;;
2462;SDS011;1243;54.298;10.172;2023-12-28T06:16:21;5.50;;;5.10;;
2462;SDS011;1243;54.298;10.172;2023-12-28T06:18:46;5.63;;;5.10;;
2462;SDS011;1243;54.298;10.172;2023-12-28T06:21:12;5.10;;;4.60;;
2462;SDS011;1243;54.298;10.172;2023-12-28T06:23:38;6.70;;;6.07;;
2462;SDS011;1243;54.298;10.172;2023-12-28T06:26:07;7.00;;;5.30;;
2462;SDS011;1243;54.298;10.172;2023-12-28T06:28:33;9.47;;;5.93;;
2462;SDS011;1243;54.298;10.172;2023-12-28T06:30:58;5.83;;;5.17;;
2462;SDS011;1243;54.298;10.172;2023-12-28T06:33:28;9.53;;;5.10;;
2462;SDS011;1243;54.298;10.172;2023-12-28T06:35:54;5.37;;;4.60;;
2462;SDS011;1243;54.298;10.172;2023-12-28T06:38:22;11.63;;;5.87;;
2462;SDS011;1243;54.298;10.172;2023-12-28T06:40:48;5.53;;;4.67;;
2462;SDS011;1243;54.298;10.172;2023-12-28T06:43:14;5.50;;;5.00;;
2462;SDS011;1243;54.298;10.172;2023-12-28T06:45:40;4.50;;;4.20;;
2462;SDS011;1243;54.298;10.172;2023-12-28T06:48:06;4.67;;;4.20;;
2462;SDS011;1243;54.298;10.172;2023-12-28T06:50:31;6.53;;;4.83;;
2462;SDS011;1243;54.298;10.172;2023-12-28T06:52:57;5.60;;;4.73;;
2462;SDS011;1243;54.298;10.172;2023-12-28T06:55:23;5.50;;;4.93;;
2462;SDS011;1243;54.298;10.172;2023-12-28T06:57:48;9.60;;;5.20;;
2462;SDS011;1243;54.298;10.172;2023-12-28T07:00:14;5.63;;;4.70;;
2462;SDS011;1243;54.298;10.172;2023-12-28T07:02:40;12.03;;;6.07;;
2462;SDS011;1243;54.298;10.172;2023-12-28T07:05:06;6.47;;;4.70;;
2462;SDS011;1243;54.298;10.172;2023-12-28T07:07:33;4.90;;;4.40;;
2462;SDS011;1243;54.298;10.172;2023-12-28T07:09:59;9.80;;;5.03;;
2462;SDS011;1243;54.298;10.172;2023-12-28T07:12:24;6.00;;;4.47;;
2462;SDS011;1243;54.298;10.172;2023-12-28T07:14:50;7.20;;;5.50;;
2462;SDS011;1243;54.298;10.172;2023-12-28T07:17:16;4.70;;;4.23;;
2462;SDS011;1243;54.298;10.172;2023-12-28T07:19:42;6.80;;;4.53;;
2462;SDS011;1243;54.298;10.172;2023-12-28T07:22:09;7.10;;;4.60;;
2462;SDS011;1243;54.298;10.172;2023-12-28T07:24:34;6.47;;;4.80;;
2462;SDS011;1243;54.298;10.172;2023-12-28T07:27:00;5.97;;;4.67;;
2462;SDS011;1243;54.298;10.172;2023-12-28T07:29:25;7.53;;;5.00;;
2462;SDS011;1243;54.298;10.172;2023-12-28T07:31:51;12.93;;;4.80;;
2462;SDS011;1243;54.298;10.172;2023-12-28T07:34:18;5.00;;;4.00;;
2462;SDS011;1243;54.298;10.172;2023-12-28T07:36:44;6.50;;;4.30;;
2462;SDS011;1243;54.298;10.172;2023-12-28T07:39:10;3.77;;;3.50;;
2462;SDS011;1243;54.298;10.172;2023-12-28T07:41:35;8.07;;;4.40;;
2462;SDS011;1243;54.298;10.172;2023-12-28T07:44:01;13.53;;;4.70;;
2462;SDS011;1243;54.298;10.172;2023-12-28T07:46:27;4.73;;;4.20;;
2462;SDS011;1243;54.298;10.172;2023-12-28T07:48:52;8.97;;;4.23;;
2462;SDS011;1243;54.298;10.172;2023-12-28T07:51:18;8.33;;;4.97;;
2462;SDS011;1243;54.298;10.172;2023-12-28T07:53:44;7.47;;;5.87;;
2462;SDS011;1243;54.298;10.172;2023-12-28T07:56:09;4.30;;;3.90;;
2462;SDS011;1243;54.298;10.172;2023-12-28T07:58:35;4.30;;;3.90;;
2462;SDS011;1243;54.298;10.172;2023-12-28T08:01:02;5.47;;;4.30;;
2462;SDS011;1243;54.298;10.172;2023-12-28T08:03:28;7.40;;;4.53;;
2462;SDS011;1243;54.298;10.172;2023-12-28T08:05:54;10.57;;;4.60;;
2462;SDS011;1243;54.298;10.172;2023-12-28T08:08:20;5.33;;;4.80;;
2462;SDS011;1243;54.298;10.172;2023-12-28T08:10:45;4.17;;;3.77;;
2462;SDS011;1243;54.298;10.172;2023-12-28T08:13:11;8.37;;;3.77;;
2462;SDS011;1243;54.298;10.172;2023-12-28T08:15:37;5.53;;;4.33;;
2462;SDS011;1243;54.298;10.172;2023-12-28T08:18:02;5.60;;;4.37;;
2462;SDS011;1243;54.298;10.172;2023-12-28T08:20:29;4.00;;;3.60;;
2462;SDS011;1243;54.298;10.172;2023-12-28T08:22:54;8.57;;;4.33;;
2462;SDS011;1243;54.298;10.172;2023-12-28T08:25:20;4.53;;;3.60;;
2462;SDS011;1243;54.298;10.172;2023-12-28T08:27:47;9.40;;;4.33;;
2462;SDS011;1243;54.298;10.172;2023-12-28T08:30:13;5.33;;;3.63;;
2462;SDS011;1243;54.298;10.172;2023-12-28T08:32:39;7.87;;;3.60;;
2462;SDS011;1243;54.298;10.172;2023-12-28T08:35:04;8.50;;;3.67;;
2462;SDS011;1243;54.298;10.172;2023-12-28T08:37:31;4.40;;;3.93;;
2462;SDS011;1243;54.298;10.172;2023-12-28T08:39:57;14.30;;;5.30;;
2462;SDS011;1243;54.298;10.172;2023-12-28T08:42:23;8.20;;;3.80;;
2462;SDS011;1243;54.298;10.172;2023-12-28T08:44:49;5.53;;;4.03;;
2462;SDS011;1243;54.298;10.172;2023-12-28T08:47:15;5.90;;;5.30;;
2462;SDS011;1243;54.298;10.172;2023-12-28T08:49:41;5.00;;;3.73;;
2462;SDS011;1243;54.298;10.172;2023-12-28T08:52:06;6.87;;;3.50;;
2462;SDS011;1243;54.298;10.172;2023-12-28T08:54:32;6.27;;;3.70;;
2462;SDS011;1243;54.298;10.172;2023-12-28T08:56:58;6.97;;;4.40;;
2462;SDS011;1243;54.298;10.172;2023-12-28T08:59:23;10.13;;;4.10;;
2462;SDS011;1243;54.298;10.172;2023-12-28T09:01:52;4.70;;;4.30;;
2462;SDS011;1243;54.298;10.172;2023-12-28T09:04:18;3.47;;;3.10;;
2462;SDS011;1243;54.298;10.172;2023-12-28T09:06:44;7.40;;;3.80;;
2462;SDS011;1243;54.298;10.172;2023-12-28T09:09:10;8.30;;;4.13;;
2462;SDS011;1243;54.298;10.172;2023-12-28T09:11:35;9.70;;;4.70;;
2462;SDS011;1243;54.298;10.172;2023-12-28T09:14:01;5.87;;;4.43;;
2462;SDS011;1243;54.298;10.172;2023-12-28T09:16:27;6.00;;;3.80;;
2462;SDS011;1243;54.298;10.172;2023-12-28T09:18:53;8.80;;;4.50;;
2462;SDS011;1243;54.298;10.172;2023-12-28T09:21:19;6.73;;;4.23;;
2462;SDS011;1243;54.298;10.172;2023-12-28T09:23:45;9.97;;;4.90;;
2462;SDS011;1243;54.298;10.172;2023-12-28T09:26:11;9.47;;;3.80;;
2462;SDS011;1243;54.298;10.172;2023-12-28T09:28:37;8.50;;;4.70;;
2462;SDS011;1243;54.298;10.172;2023-12-28T09:31:03;5.07;;;3.37;;
2462;SDS011;1243;54.298;10.172;2023-12-28T09:33:29;3.83;;;3.30;;
2462;SDS011;1243;54.298;10.172;2023-12-28T09:35:55;10.67;;;3.77;;
2462;SDS011;1243;54.298;10.172;2023-12-28T09:38:21;8.83;;;3.33;;
2462;SDS011;1243;54.298;10.172;2023-12-28T09:40:47;5.30;;;3.87;;
2462;SDS011;1243;54.298;10.172;2023-12-28T09:45:52;7.20;;;4.10;;
2462;SDS011;1243;54.298;10.172;2023-12-28T09:48:22;3.77;;;2.90;;
2462;SDS011;1243;54.298;10.172;2023-12-28T09:50:51;8.97;;;3.00;;
2462;SDS011;1243;54.298;10.172;2023-12-28T09:53:20;13.50;;;3.93;;
2462;SDS011;1243;54.298;10.172;2023-12-28T09:55:47;6.73;;;3.63;;
2462;SDS011;1243;54.298;10.172;2023-12-28T09:58:14;9.63;;;3.97;;
2462;SDS011;1243;54.298;10.172;2023-12-28T10:00:45;8.03;;;3.83;;
2462;SDS011;1243;54.298;10.172;2023-12-28T10:03:14;7.50;;;3.97;;
2462;SDS011;1243;54.298;10.172;2023-12-28T10:05:41;5.03;;;4.27;;
2462;SDS011;1243;54.298;10.172;2023-12-28T10:08:07;10.97;;;3.73;;
2462;SDS011;1243;54.298;10.172;2023-12-28T10:10:33;7.87;;;2.70;;
2462;SDS011;1243;54.298;10.172;2023-12-28T10:12:59;5.80;;;3.10;;
2462;SDS011;1243;54.298;10.172;2023-12-28T10:15:25;8.87;;;3.60;;
2462;SDS011;1243;54.298;10.172;2023-12-28T10:17:51;5.10;;;3.43;;
2462;SDS011;1243;54.298;10.172;2023-12-28T10:20:17;12.53;;;3.83;;
2462;SDS011;1243;54.298;10.172;2023-12-28T10:22:43;9.37;;;4.20;;
2462;SDS011;1243;54.298;10.172;2023-12-28T10:25:09;10.90;;;3.20;;
2462;SDS011;1243;54.298;10.172;2023-12-28T10:27:39;10.37;;;3.53;;
2462;SDS011;1243;54.298;10.172;2023-12-28T10:30:07;17.97;;;4.83;;
2462;SDS011;1243;54.298;10.172;2023-12-28T10:32:35;7.83;;;3.50;;
2462;SDS011;1243;54.298;10.172;2023-12-28T10:35:01;9.93;;;3.40;;
2462;SDS011;1243;54.298;10.172;2023-12-28T10:37:27;7.30;;;2.43;;
2462;SDS011;1243;54.298;10.172;2023-12-28T10:39:57;10.07;;;3.30;;
2462;SDS011;1243;54.298;10.172;2023-12-28T10:44:57;7.73;;;4.00;;
2462;SDS011;1243;54.298;10.172;2023-12-28T10:47:31;8.97;;;3.23;;
2462;SDS011;1243;54.298;10.172;2023-12-28T10:50:00;13.77;;;4.77;;
2462;SDS011;1243;54.298;10.172;2023-12-28T10:52:28;14.10;;;3.93;;
2462;SDS011;1243;54.298;10.172;2023-12-28T11:00:25;4.70;;;3.00;;
2462;SDS011;1243;54.298;10.172;2023-12-28T11:02:53;7.30;;;3.00;;
2462;SDS011;1243;54.298;10.172;2023-12-28T11:05:25;15.53;;;4.90;;
2462;SDS011;1243;54.298;10.172;2023-12-28T11:07:52;9.23;;;3.63;;
2462;SDS011;1243;54.298;10.172;2023-12-28T11:10:22;13.00;;;4.00;;
2462;SDS011;1243;54.298;10.172;2023-12-28T11:12:51;9.40;;;4.13;;
2462;SDS011;1243;54.298;10.172;2023-12-28T11:15:18;8.93;;;2.80;;
2462;SDS011;1243;54.298;10.172;2023-12-28T11:17:44;6.90;;;4.03;;
2462;SDS011;1243;54.298;10.172;2023-12-28T11:20:10;7.30;;;3.23;;
2462;SDS011;1243;54.298;10.172;2023-12-28T11:22:36;12.97;;;4.10;;
2462;SDS011;1243;54.298;10.172;2023-12-28T11:25:03;11.57;;;4.20;;
2462;SDS011;1243;54.298;10.172;2023-12-28T11:27:35;12.63;;;4.00;;
2462;SDS011;1243;54.298;10.172;2023-12-28T11:30:03;10.40;;;4.00;;
2462;SDS011;1243;54.298;10.172;2023-12-28T11:32:32;14.00;;;4.53;;
2462;SDS011;1243;54.298;10.172;2023-12-28T11:34:59;15.73;;;4.03;;
2462;SDS011;1243;54.298;10.172;2023-12-28T11:37:26;6.87;;;3.50;;
2462;SDS011;1243;54.298;10.172;2023-12-28T11:39:52;16.80;;;5.60;;
2462;SDS011;1243;54.298;10.172;2023-12-28T11:42:22;11.83;;;4.40;;
2462;SDS011;1243;54.298;10.172;2023-12-28T11:44:53;11.17;;;3.97;;
2462;SDS011;1243;54.298;10.172;2023-12-28T11:47:23;18.43;;;4.30;;
2462;SDS011;1243;54.298;10.172;2023-12-28T11:49:50;17.23;;;3.97;;
2462;SDS011;1243;54.298;10.172;2023-12-28T11:52:31;10.77;;;4.63;;
2462;SDS011;1243;54.298;10.172;2023-12-28T11:54:57;17.17;;;4.90;;
2462;SDS011;1243;54.298;10.172;2023-12-28T11:57:25;9.80;;;3.83;;
2462;SDS011;1243;54.298;10.172;2023-12-28T11:59:58;8.10;;;3.80;;
2462;SDS011;1243;54.298;10.172;2023-12-28T12:02:24;8.60;;;4.17;;
2462;SDS011;1243;54.298;10.172;2023-12-28T12:04:51;11.60;;;4.50;;
2462;SDS011;1243;54.298;10.172;2023-12-28T12:07:22;13.03;;;4.37;;
2462;SDS011;1243;54.298;10.172;2023-12-28T12:09:57;8.33;;;3.43;;
2462;SDS011;1243;54.298;10.172;2023-12-28T12:12:23;17.77;;;4.73;;
2462;SDS011;1243;54.298;10.172;2023-12-28T12:14:49;10.33;;;4.23;;
2462;SDS011;1243;54.298;10.172;2023-12-28T12:17:15;9.03;;;4.37;;
2462;SDS011;1243;54.298;10.172;2023-12-28T12:19:41;26.13;;;5.30;;
2462;SDS011;1243;54.298;10.172;2023-12-28T12:22:06;14.33;;;4.90;;
2462;SDS011;1243;54.298;10.172;2023-12-28T12:24:32;19.90;;;3.90;;
2462;SDS011;1243;54.298;10.172;2023-12-28T12:27:00;7.73;;;3.10;;
2462;SDS011;1243;54.298;10.172;2023-12-28T12:29:29;23.20;;;7.60;;
2462;SDS011;1243;54.298;10.172;2023-12-28T12:31:55;12.17;;;3.30;;
2462;SDS011;1243;54.298;10.172;2023-12-28T12:34:21;12.60;;;4.43;;
2462;SDS011;1243;54.298;10.172;2023-12-28T12:36:47;12.23;;;4.57;;
2462;SDS011;1243;54.298;10.172;2023-12-28T12:39:17;12.20;;;4.40;;
2462;SDS011;1243;54.298;10.172;2023-12-28T12:41:45;11.77;;;4.50;;
2462;SDS011;1243;54.298;10.172;2023-12-28T12:44:11;9.33;;;3.80;;
2462;SDS011;1243;54.298;10.172;2023-12-28T12:46:37;19.23;;;5.17;;
2462;SDS011;1243;54.298;10.172;2023-12-28T12:49:03;23.73;;;6.07;;
2462;SDS011;1243;54.298;10.172;2023-12-28T12:51:31;36.40;;;5.77;;
2462;SDS011;1243;54.298;10.172;2023-12-28T12:53:59;17.80;;;5.30;;
2462;SDS011;1243;54.298;10.172;2023-12-28T12:56:29;21.23;;;5.77;;
2462;SDS011;1243;54.298;10.172;2023-12-28T12:58:55;13.77;;;4.87;;
2462;SDS011;1243;54.298;10.172;2023-12-28T13:01:24;27.80;;;6.87;;
2462;SDS011;1243;54.298;10.172;2023-12-28T13:03:50;11.33;;;4.30;;
2462;SDS011;1243;54.298;10.172;2023-12-28T13:06:16;11.50;;;4.73;;
2462;SDS011;1243;54.298;10.172;2023-12-28T13:08:43;14.00;;;7.00;;
2462;SDS011;1243;54.298;10.172;2023-12-28T13:11:08;19.03;;;4.83;;
2462;SDS011;1243;54.298;10.172;2023-12-28T13:13:34;14.87;;;4.07;;
2462;SDS011;1243;54.298;10.172;2023-12-28T13:16:01;19.33;;;5.50;;
2462;SDS011;1243;54.298;10.172;2023-12-28T13:18:27;20.33;;;5.90;;
2462;SDS011;1243;54.298;10.172;2023-12-28T13:20:52;15.63;;;5.93;;
2462;SDS011;1243;54.298;10.172;2023-12-28T13:23:18;20.33;;;4.97;;
2462;SDS011;1243;54.298;10.172;2023-12-28T13:25:44;20.70;;;5.53;;
2462;SDS011;1243;54.298;10.172;2023-12-28T13:28:10;14.87;;;5.17;;
2462;SDS011;1243;54.298;10.172;2023-12-28T13:30:37;12.10;;;5.83;;
2462;SDS011;1243;54.298;10.172;2023-12-28T13:33:03;22.93;;;5.97;;
2462;SDS011;1243;54.298;10.172;2023-12-28T13:35:30;24.50;;;5.20;;
2462;SDS011;1243;54.298;10.172;2023-12-28T13:37:57;28.93;;;5.50;;
2462;SDS011;1243;54.298;10.172;2023-12-28T13:40:23;17.37;;;5.10;;
2462;SDS011;1243;54.298;10.172;2023-12-28T13:42:48;18.63;;;5.20;;
2462;SDS011;1243;54.298;10.172;2023-12-28T13:45:14;17.93;;;5.13;;
2462;SDS011;1243;54.298;10.172;2023-12-28T13:47:40;14.70;;;5.17;;
2462;SDS011;1243;54.298;10.172;2023-12-28T13:50:06;11.63;;;5.13;;
2462;SDS011;1243;54.298;10.172;2023-12-28T13:52:32;14.23;;;5.30;;
2462;SDS011;1243;54.298;10.172;2023-12-28T13:54:58;13.77;;;5.30;;
2462;SDS011;1243;54.298;10.172;2023-12-28T13:57:24;12.97;;;4.50;;
2462;SDS011;1243;54.298;10.172;2023-12-28T13:59:49;20.10;;;6.50;;
2462;SDS011;1243;54.298;10.172;2023-12-28T14:02:15;17.30;;;4.80;;
2462;SDS011;1243;54.298;10.172;2023-12-28T14:04:41;16.07;;;5.73;;
2462;SDS011;1243;54.298;10.172;2023-12-28T14:07:06;13.73;;;5.30;;
2462;SDS011;1243;54.298;10.172;2023-12-28T14:09:32;7.20;;;4.30;;
2462;SDS011;1243;54.298;10.172;2023-12-28T14:11:58;14.20;;;5.53;;
2462;SDS011;1243;54.298;10.172;2023-12-28T14:14:24;15.93;;;4.90;;
2462;SDS011;1243;54.298;10.172;2023-12-28T14:16:50;17.10;;;4.77;;
2462;SDS011;1243;54.298;10.172;2023-12-28T14:19:15;24.30;;;5.40;;
2462;SDS011;1243;54.298;10.172;2023-12-28T14:21:41;30.63;;;6.20;;
2462;SDS011;1243;54.298;10.172;2023-12-28T14:24:08;14.73;;;4.97;;
2462;SDS011;1243;54.298;10.172;2023-12-28T14:26:34;21.63;;;5.43;;
2462;SDS011;1243;54.298;10.172;2023-12-28T14:29:09;24.23;;;4.83;;
2462;SDS011;1243;54.298;10.172;2023-12-28T14:31:36;20.87;;;5.60;;
2462;SDS011;1243;54.298;10.172;2023-12-28T14:34:02;17.63;;;5.40;;
2462;SDS011;1243;54.298;10.172;2023-12-28T14:36:35;12.63;;;6.30;;
2462;SDS011;1243;54.298;10.172;2023-12-28T14:39:03;18.03;;;4.63;;
2462;SDS011;1243;54.298;10.172;2023-12-28T14:41:30;9.83;;;4.37;;
2462;SDS011;1243;54.298;10.172;2023-12-28T14:43:56;14.90;;;4.33;;
2462;SDS011;1243;54.298;10.172;2023-12-28T14:46:23;27.87;;;6.90;;
2462;SDS011;1243;54.298;10.172;2023-12-28T14:48:49;23.40;;;5.60;;
2462;SDS011;1243;54.298;10.172;2023-12-28T14:51:15;13.47;;;4.83;;
2462;SDS011;1243;54.298;10.172;2023-12-28T14:53:41;17.57;;;5.90;;
2462;SDS011;1243;54.298;10.172;2023-12-28T14:56:06;13.20;;;5.60;;
2462;SDS011;1243;54.298;10.172;2023-12-28T14:58:32;15.07;;;4.67;;
2462;SDS011;1243;54.298;10.172;2023-12-28T15:00:58;18.23;;;6.53;;
2462;SDS011;1243;54.298;10.172;2023-12-28T15:03:24;24.57;;;5.43;;
2462;SDS011;1243;54.298;10.172;2023-12-28T15:05:50;20.77;;;5.90;;